createdAt,value
2019-03-15T00:00:22.997Z,990.13
2019-03-15T00:01:23.012Z,990.21
2019-03-15T00:02:22.977Z,990.19
2019-03-15T00:03:22.969Z,990.26
2019-03-15T00:04:22.987Z,990.25
2019-03-15T00:05:22.944Z,990.24
2019-03-15T00:06:23.001Z,990.34
2019-03-15T00:07:22.974Z,990.38
2019-03-15T00:08:22.913Z,990.32
2019-03-15T00:09:22.902Z,990.38
2019-03-15T00:10:22.894Z,990.38
2019-03-15T00:11:22.881Z,990.42
2019-03-15T00:12:22.896Z,990.49
2019-03-15T00:13:22.892Z,990.44
2019-03-15T00:14:22.849Z,990.43
2019-03-15T00:15:22.838Z,990.43
2019-03-15T00:16:22.831Z,990.43
2019-03-15T00:17:22.957Z,990.53
2019-03-15T00:18:22.813Z,990.49
2019-03-15T00:19:22.795Z,990.47
2019-03-15T00:20:22.787Z,990.56
2019-03-15T00:21:22.776Z,990.53
2019-03-15T00:22:22.766Z,990.56
2019-03-15T00:23:22.789Z,990.45
2019-03-15T00:24:22.745Z,990.55
2019-03-15T00:25:22.732Z,990.58
2019-03-15T00:26:22.726Z,990.63
2019-03-15T00:27:22.713Z,990.63
2019-03-15T00:28:22.738Z,990.68
2019-03-15T00:29:22.691Z,990.63
2019-03-15T00:30:22.682Z,990.63
2019-03-15T00:31:22.672Z,990.58
2019-03-15T00:32:22.660Z,990.69
2019-03-15T00:33:22.652Z,990.79
2019-03-15T00:34:22.662Z,990.66
2019-03-15T00:35:22.664Z,990.69
2019-03-15T00:36:22.618Z,990.64
2019-03-15T00:37:22.611Z,990.67
2019-03-15T00:38:22.596Z,990.67
2019-03-15T00:39:22.623Z,990.67
2019-03-15T00:40:22.575Z,990.74
2019-03-15T00:41:22.564Z,990.77
2019-03-15T00:42:22.557Z,990.79
2019-03-15T00:43:22.543Z,990.78
2019-03-15T00:44:22.537Z,990.80
2019-03-15T00:45:22.548Z,990.74
2019-03-15T00:46:22.509Z,990.80
2019-03-15T00:47:22.500Z,990.82
2019-03-15T00:48:22.491Z,990.82
2019-03-15T00:49:22.479Z,990.83
2019-03-15T00:50:22.507Z,990.88
2019-03-15T00:51:22.469Z,990.88
2019-03-15T00:52:22.447Z,990.88
2019-03-15T00:53:22.445Z,990.87
2019-03-15T00:54:22.430Z,990.90
2019-03-15T00:55:22.416Z,990.88
2019-03-15T00:56:22.429Z,990.95
2019-03-15T00:57:22.395Z,990.89
2019-03-15T00:58:22.385Z,990.92
2019-03-15T00:59:22.389Z,990.96
2019-03-15T01:00:22.369Z,991.05
2019-03-15T01:01:22.394Z,991.03
2019-03-15T01:02:22.340Z,990.90
2019-03-15T01:03:22.330Z,991.13
2019-03-15T01:04:22.320Z,991.10
2019-03-15T01:05:22.308Z,991.15
2019-03-15T01:06:22.296Z,991.12
2019-03-15T01:07:22.314Z,991.10
2019-03-15T01:08:22.277Z,991.05
2019-03-15T01:09:22.265Z,991.13
2019-03-15T01:10:22.256Z,991.08
2019-03-15T01:11:22.246Z,991.13
2019-03-15T01:12:22.268Z,991.18
2019-03-15T01:13:22.221Z,991.20
2019-03-15T01:14:22.214Z,991.12
2019-03-15T01:15:22.200Z,991.17
2019-03-15T01:16:22.189Z,991.12
2019-03-15T01:17:22.179Z,991.04
2019-03-15T01:18:22.194Z,991.17
2019-03-15T01:19:22.158Z,991.06
2019-03-15T01:20:22.150Z,991.08
2019-03-15T01:21:22.137Z,991.07
2019-03-15T01:22:22.129Z,991.02
2019-03-15T01:23:22.156Z,991.06
2019-03-15T01:24:22.105Z,991.19
2019-03-15T01:25:22.093Z,991.20
2019-03-15T01:26:22.085Z,991.10
2019-03-15T01:27:22.076Z,991.15
2019-03-15T01:28:22.104Z,991.12
2019-03-15T01:29:22.055Z,991.19
2019-03-15T01:30:22.044Z,991.19
2019-03-15T01:31:22.032Z,991.25
2019-03-15T01:32:22.020Z,991.10
2019-03-15T01:33:22.009Z,991.15
2019-03-15T01:34:22.023Z,991.27
2019-03-15T01:35:21.987Z,991.22
2019-03-15T01:36:21.977Z,991.20
2019-03-15T01:37:21.968Z,991.16
2019-03-15T01:38:21.959Z,991.16
2019-03-15T01:39:21.988Z,991.23
2019-03-15T01:40:21.935Z,991.26
2019-03-15T01:41:21.929Z,991.13
2019-03-15T01:42:22.282Z,991.19
2019-03-15T01:43:21.899Z,991.21
2019-03-15T01:44:21.893Z,991.23
2019-03-15T01:45:21.902Z,991.25
2019-03-15T01:46:21.868Z,991.12
2019-03-15T01:47:21.857Z,991.25
2019-03-15T01:48:21.846Z,991.33
2019-03-15T01:49:21.841Z,991.31
2019-03-15T01:50:21.867Z,991.31
2019-03-15T01:51:21.819Z,991.24
2019-03-15T01:52:21.805Z,991.34
2019-03-15T01:53:21.794Z,991.34
2019-03-15T01:54:21.780Z,991.33
2019-03-15T01:55:21.775Z,991.28
2019-03-15T01:56:21.782Z,991.38
2019-03-15T01:57:21.752Z,991.40
2019-03-15T01:58:21.738Z,991.36
2019-03-15T01:59:21.746Z,991.31
2019-03-15T02:00:21.713Z,991.38
2019-03-15T02:01:21.741Z,991.46
2019-03-15T02:02:22.333Z,991.30
2019-03-15T02:03:21.687Z,991.42
2019-03-15T02:04:21.672Z,991.46
2019-03-15T02:05:21.664Z,991.34
2019-03-15T02:06:21.651Z,991.37
2019-03-15T02:07:21.669Z,991.37
2019-03-15T02:08:21.630Z,991.32
2019-03-15T02:09:21.623Z,991.44
2019-03-15T02:10:22.230Z,991.43
2019-03-15T02:11:21.599Z,991.39
2019-03-15T02:12:21.978Z,991.35
2019-03-15T02:13:21.578Z,991.34
2019-03-15T02:14:21.571Z,991.29
2019-03-15T02:15:21.553Z,991.30
2019-03-15T02:16:21.544Z,991.31
2019-03-15T02:17:21.536Z,991.36
2019-03-15T02:18:21.547Z,991.34
2019-03-15T02:19:21.508Z,991.32
2019-03-15T02:20:21.506Z,991.37
2019-03-15T02:21:21.493Z,991.31
2019-03-15T02:22:21.483Z,991.35
2019-03-15T02:23:21.502Z,991.47
2019-03-15T02:24:21.460Z,991.39
2019-03-15T02:25:21.446Z,991.42
2019-03-15T02:26:21.435Z,991.37
2019-03-15T02:27:21.424Z,991.41
2019-03-15T02:28:21.417Z,991.46
2019-03-15T02:29:21.435Z,991.50
2019-03-15T02:30:21.540Z,991.46
2019-03-15T02:31:21.384Z,991.53
2019-03-15T02:32:21.373Z,991.51
2019-03-15T02:33:21.374Z,991.46
2019-03-15T02:34:21.390Z,991.50
2019-03-15T02:35:21.341Z,991.50
2019-03-15T02:36:21.336Z,991.51
2019-03-15T02:37:21.323Z,991.54
2019-03-15T02:38:21.318Z,991.51
2019-03-15T02:39:21.301Z,991.47
2019-03-15T02:40:21.315Z,991.53
2019-03-15T02:41:21.286Z,991.54
2019-03-15T02:42:21.271Z,991.57
2019-03-15T02:43:21.265Z,991.62
2019-03-15T02:44:21.248Z,991.58
2019-03-15T02:45:21.272Z,991.59
2019-03-15T02:46:21.230Z,991.62
2019-03-15T02:47:21.213Z,991.59
2019-03-15T02:48:21.233Z,991.62
2019-03-15T02:49:21.200Z,991.64
2019-03-15T02:50:21.183Z,991.70
2019-03-15T02:51:21.201Z,991.67
2019-03-15T02:52:21.161Z,991.73
2019-03-15T02:53:21.152Z,991.61
2019-03-15T02:54:21.140Z,991.67
2019-03-15T02:55:21.400Z,991.78
2019-03-15T02:56:21.156Z,991.73
2019-03-15T02:57:21.108Z,991.78
2019-03-15T02:58:21.100Z,991.77
2019-03-15T02:59:21.243Z,991.76
2019-03-15T03:00:21.078Z,991.88
2019-03-15T03:01:21.074Z,991.84
2019-03-15T03:02:21.082Z,991.72
2019-03-15T03:03:21.045Z,991.71
2019-03-15T03:04:21.035Z,991.84
2019-03-15T03:05:21.023Z,991.77
2019-03-15T03:06:21.014Z,991.71
2019-03-15T03:07:21.286Z,991.74
2019-03-15T03:08:20.990Z,991.75
2019-03-15T03:09:20.980Z,991.88
2019-03-15T03:10:20.973Z,991.87
2019-03-15T03:11:20.960Z,991.96
2019-03-15T03:12:20.950Z,991.86
2019-03-15T03:13:20.965Z,991.93
2019-03-15T03:14:20.925Z,991.99
2019-03-15T03:15:20.916Z,992.09
2019-03-15T03:16:20.909Z,991.96
2019-03-15T03:17:20.899Z,991.98
2019-03-15T03:18:20.926Z,992.03
2019-03-15T03:19:20.892Z,991.99
2019-03-15T03:20:21.143Z,991.99
2019-03-15T03:21:20.872Z,992.03
2019-03-15T03:22:20.845Z,992.06
2019-03-15T03:23:20.831Z,992.04
2019-03-15T03:24:20.846Z,992.12
2019-03-15T03:25:20.806Z,992.15
2019-03-15T03:26:20.803Z,992.09
2019-03-15T03:27:20.784Z,992.16
2019-03-15T03:28:20.783Z,992.16
2019-03-15T03:29:20.799Z,992.28
2019-03-15T03:30:20.839Z,992.24
2019-03-15T03:31:20.851Z,992.18
2019-03-15T03:32:20.731Z,992.26
2019-03-15T03:33:20.720Z,992.24
2019-03-15T03:34:20.715Z,992.32
2019-03-15T03:35:20.732Z,992.40
2019-03-15T03:36:20.686Z,992.41
2019-03-15T03:37:20.680Z,992.43
2019-03-15T03:38:20.664Z,992.52
2019-03-15T03:39:20.652Z,992.44
2019-03-15T03:40:21.257Z,992.42
2019-03-15T03:41:20.641Z,992.39
2019-03-15T03:42:20.633Z,992.49
2019-03-15T03:43:20.614Z,992.40
2019-03-15T03:44:20.602Z,992.38
2019-03-15T03:45:23.218Z,992.42
2019-03-15T03:46:20.603Z,992.37
2019-03-15T03:47:20.571Z,992.44
2019-03-15T03:48:20.560Z,992.46
2019-03-15T03:49:20.548Z,992.45
2019-03-15T03:50:27.570Z,992.45
2019-03-15T03:51:20.565Z,992.43
2019-03-15T03:52:20.521Z,992.43
2019-03-15T03:53:20.505Z,992.49
2019-03-15T03:54:20.493Z,992.52
2019-03-15T03:55:20.484Z,992.44
2019-03-15T03:56:20.475Z,992.48
2019-03-15T03:57:20.487Z,992.57
2019-03-15T03:58:20.455Z,992.58
2019-03-15T03:59:20.442Z,992.60
2019-03-15T04:00:20.432Z,992.62
2019-03-15T04:01:20.421Z,992.60
2019-03-15T04:02:20.445Z,992.53
2019-03-15T04:03:20.399Z,992.54
2019-03-15T04:04:20.392Z,992.60
2019-03-15T04:05:20.380Z,992.58
2019-03-15T04:06:20.367Z,992.57
2019-03-15T04:07:20.357Z,992.56
2019-03-15T04:08:20.376Z,992.62
2019-03-15T04:09:20.337Z,992.64
2019-03-15T04:10:20.327Z,992.71
2019-03-15T04:11:20.320Z,992.60
2019-03-15T04:12:20.304Z,992.64
2019-03-15T04:13:20.332Z,992.68
2019-03-15T04:14:20.284Z,992.71
2019-03-15T04:15:20.272Z,992.70
2019-03-15T04:16:20.270Z,992.74
2019-03-15T04:17:20.252Z,992.74
2019-03-15T04:18:20.243Z,992.78
2019-03-15T04:19:20.256Z,992.67
2019-03-15T04:20:20.221Z,992.65
2019-03-15T04:21:20.210Z,992.70
2019-03-15T04:22:20.199Z,992.75
2019-03-15T04:23:20.189Z,992.80
2019-03-15T04:24:20.216Z,992.82
2019-03-15T04:25:20.168Z,992.79
2019-03-15T04:26:20.158Z,992.87
2019-03-15T04:27:20.146Z,992.81
2019-03-15T04:28:20.138Z,992.94
2019-03-15T04:29:20.126Z,992.87
2019-03-15T04:30:20.145Z,992.90
2019-03-15T04:31:20.107Z,992.94
2019-03-15T04:32:20.095Z,992.92
2019-03-15T04:33:20.084Z,992.96
2019-03-15T04:34:20.079Z,993.00
2019-03-15T04:35:20.100Z,992.92
2019-03-15T04:36:20.052Z,993.07
2019-03-15T04:37:22.749Z,992.95
2019-03-15T04:38:20.031Z,993.05
2019-03-15T04:39:20.022Z,993.01
2019-03-15T04:40:20.009Z,993.04
2019-03-15T04:41:20.027Z,993.04
2019-03-15T04:42:19.989Z,993.09
2019-03-15T04:43:19.983Z,993.08
2019-03-15T04:44:19.967Z,993.15
2019-03-15T04:45:19.962Z,993.04
2019-03-15T04:46:19.983Z,993.09
2019-03-15T04:47:19.937Z,993.19
2019-03-15T04:48:19.928Z,993.10
2019-03-15T04:49:19.922Z,993.11
2019-03-15T04:50:19.903Z,993.12
2019-03-15T04:51:19.911Z,993.03
2019-03-15T04:52:19.912Z,993.07
2019-03-15T04:53:19.878Z,993.12
2019-03-15T04:54:19.862Z,993.10
2019-03-15T04:55:19.854Z,993.20
2019-03-15T04:56:19.840Z,993.26
2019-03-15T04:57:19.872Z,993.26
2019-03-15T04:58:19.841Z,993.22
2019-03-15T04:59:19.811Z,993.29
2019-03-15T05:00:19.804Z,993.32
2019-03-15T05:01:19.789Z,993.32
2019-03-15T05:02:19.777Z,993.22
2019-03-15T05:03:19.795Z,993.48
2019-03-15T05:04:19.759Z,993.36
2019-03-15T05:05:19.746Z,993.39
2019-03-15T05:06:19.737Z,993.34
2019-03-15T05:07:19.726Z,993.36
2019-03-15T05:08:19.767Z,993.37
2019-03-15T05:09:19.704Z,993.42
2019-03-15T05:10:19.694Z,993.36
2019-03-15T05:11:19.684Z,993.41
2019-03-15T05:12:19.673Z,993.39
2019-03-15T05:13:19.663Z,993.34
2019-03-15T05:14:19.673Z,993.38
2019-03-15T05:15:19.641Z,993.36
2019-03-15T05:16:19.629Z,993.42
2019-03-15T05:17:19.620Z,993.45
2019-03-15T05:18:19.609Z,993.55
2019-03-15T05:19:19.634Z,993.52
2019-03-15T05:20:21.181Z,993.48
2019-03-15T05:21:19.575Z,993.49
2019-03-15T05:22:19.568Z,993.50
2019-03-15T05:23:19.559Z,993.58
2019-03-15T05:24:19.547Z,993.50
2019-03-15T05:25:19.567Z,993.55
2019-03-15T05:26:19.525Z,993.52
2019-03-15T05:27:19.515Z,993.65
2019-03-15T05:28:19.508Z,993.57
2019-03-15T05:29:19.494Z,993.53
2019-03-15T05:30:19.520Z,993.60
2019-03-15T05:31:19.476Z,993.51
2019-03-15T05:32:19.463Z,993.53
2019-03-15T05:33:19.450Z,993.61
2019-03-15T05:34:19.440Z,993.55
2019-03-15T05:35:19.436Z,993.55
2019-03-15T05:36:19.447Z,993.61
2019-03-15T05:37:19.413Z,993.65
2019-03-15T05:38:19.399Z,993.58
2019-03-15T05:39:19.388Z,993.57
2019-03-15T05:40:19.378Z,993.52
2019-03-15T05:41:19.417Z,993.64
2019-03-15T05:42:19.356Z,993.62
2019-03-15T05:43:19.353Z,993.69
2019-03-15T05:44:19.338Z,993.81
2019-03-15T05:45:19.322Z,993.74
2019-03-15T05:46:19.313Z,993.68
2019-03-15T05:47:19.326Z,993.68
2019-03-15T05:48:19.293Z,993.72
2019-03-15T05:49:19.281Z,993.73
2019-03-15T05:50:19.271Z,993.75
2019-03-15T05:51:19.261Z,993.79
2019-03-15T05:52:19.288Z,993.82
2019-03-15T05:53:19.240Z,993.84
2019-03-15T05:54:19.230Z,993.90
2019-03-15T05:55:19.218Z,993.95
2019-03-15T05:56:19.206Z,993.88
2019-03-15T05:57:19.196Z,993.96
2019-03-15T05:58:21.749Z,993.99
2019-03-15T05:59:19.174Z,993.90
2019-03-15T06:00:19.199Z,993.93
2019-03-15T06:01:19.155Z,993.94
2019-03-15T06:02:19.154Z,994.05
2019-03-15T06:03:19.170Z,994.03
2019-03-15T06:04:19.128Z,994.06
2019-03-15T06:05:19.121Z,994.16
2019-03-15T06:06:19.104Z,994.11
2019-03-15T06:07:19.090Z,994.18
2019-03-15T06:08:19.095Z,994.16
2019-03-15T06:09:19.096Z,994.14
2019-03-15T06:10:19.062Z,994.16
2019-03-15T06:11:19.049Z,994.25
2019-03-15T06:12:19.042Z,994.18
2019-03-15T06:13:19.033Z,994.23
2019-03-15T06:14:19.057Z,994.22
2019-03-15T06:15:19.010Z,994.28
2019-03-15T06:16:18.997Z,994.25
2019-03-15T06:17:18.987Z,994.22
2019-03-15T06:18:18.976Z,994.30
2019-03-15T06:19:18.966Z,994.29
2019-03-15T06:20:18.979Z,994.27
2019-03-15T06:21:18.950Z,994.31
2019-03-15T06:22:18.932Z,994.35
2019-03-15T06:23:18.924Z,994.38
2019-03-15T06:24:18.915Z,994.38
2019-03-15T06:25:19.057Z,994.25
2019-03-15T06:26:18.894Z,994.37
2019-03-15T06:27:18.880Z,994.38
2019-03-15T06:28:18.873Z,994.39
2019-03-15T06:29:18.861Z,994.38
2019-03-15T06:30:18.849Z,994.41
2019-03-15T06:31:18.864Z,994.37
2019-03-15T06:32:18.827Z,994.43
2019-03-15T06:33:18.816Z,994.49
2019-03-15T06:34:18.805Z,994.41
2019-03-15T06:35:18.805Z,994.38
2019-03-15T06:36:18.821Z,994.44
2019-03-15T06:37:18.776Z,994.39
2019-03-15T06:38:18.764Z,994.48
2019-03-15T06:39:18.750Z,994.45
2019-03-15T06:40:18.740Z,994.52
2019-03-15T06:41:18.735Z,994.44
2019-03-15T06:42:18.748Z,994.41
2019-03-15T06:43:18.707Z,994.44
2019-03-15T06:44:18.696Z,994.38
2019-03-15T06:45:18.710Z,994.41
2019-03-15T06:46:18.680Z,994.41
2019-03-15T06:47:18.699Z,994.45
2019-03-15T06:48:18.651Z,994.38
2019-03-15T06:49:18.640Z,994.41
2019-03-15T06:50:18.637Z,994.45
2019-03-15T06:51:18.624Z,994.40
2019-03-15T06:52:18.691Z,994.43
2019-03-15T06:53:19.738Z,994.51
2019-03-15T06:54:19.243Z,994.51
2019-03-15T06:55:19.273Z,994.47
2019-03-15T06:56:18.565Z,994.50
2019-03-15T06:57:18.555Z,994.56
2019-03-15T06:58:18.580Z,994.57
2019-03-15T06:59:18.535Z,994.48
2019-03-15T07:00:18.523Z,994.52
2019-03-15T07:01:18.510Z,994.54
2019-03-15T07:02:19.583Z,994.55
2019-03-15T07:03:18.487Z,994.51
2019-03-15T07:04:18.502Z,994.57
2019-03-15T07:05:18.466Z,994.57
2019-03-15T07:06:18.462Z,994.57
2019-03-15T07:07:18.446Z,994.51
2019-03-15T07:08:18.432Z,994.54
2019-03-15T07:09:18.458Z,994.60
2019-03-15T07:10:18.425Z,994.56
2019-03-15T07:11:18.405Z,994.50
2019-03-15T07:12:18.391Z,994.69
2019-03-15T07:13:18.379Z,994.64
2019-03-15T07:14:18.370Z,994.54
2019-03-15T07:15:18.383Z,994.62
2019-03-15T07:16:18.347Z,994.62
2019-03-15T07:17:18.344Z,994.70
2019-03-15T07:18:18.918Z,994.63
2019-03-15T07:19:27.418Z,994.70
2019-03-15T07:20:19.341Z,994.69
2019-03-15T07:21:18.300Z,994.66
2019-03-15T07:22:19.966Z,994.59
2019-03-15T07:23:18.272Z,994.64
2019-03-15T07:24:24.932Z,994.63
2019-03-15T07:25:19.249Z,994.60
2019-03-15T07:26:18.266Z,994.64
2019-03-15T07:27:18.234Z,994.64
2019-03-15T07:28:18.226Z,994.58
2019-03-15T07:29:19.099Z,994.59
2019-03-15T07:30:18.210Z,994.67
2019-03-15T07:31:18.227Z,994.63
2019-03-15T07:32:18.185Z,994.66
2019-03-15T07:33:18.189Z,994.67
2019-03-15T07:34:18.161Z,994.68
2019-03-15T07:35:18.150Z,994.69
2019-03-15T07:36:18.135Z,994.78
2019-03-15T07:37:18.152Z,994.66
2019-03-15T07:38:18.113Z,994.70
2019-03-15T07:39:18.103Z,994.72
2019-03-15T07:40:18.363Z,994.69
2019-03-15T07:41:18.098Z,994.73
2019-03-15T07:42:18.109Z,994.81
2019-03-15T07:43:20.095Z,994.71
2019-03-15T07:44:18.053Z,994.58
2019-03-15T07:45:18.152Z,994.71
2019-03-15T07:46:18.075Z,994.98
2019-03-15T07:47:18.019Z,994.83
2019-03-15T07:48:22.872Z,994.85
2019-03-15T07:49:18.995Z,994.80
2019-03-15T07:50:18.004Z,994.80
2019-03-15T07:51:17.979Z,994.84
2019-03-15T07:52:18.095Z,994.86
2019-03-15T07:53:17.991Z,994.87
2019-03-15T07:54:17.950Z,994.89
2019-03-15T07:55:17.934Z,994.76
2019-03-15T07:56:17.927Z,994.79
2019-03-15T07:57:17.913Z,994.81
2019-03-15T07:58:17.909Z,994.76
2019-03-15T07:59:17.918Z,994.79
2019-03-15T08:00:17.881Z,994.88
2019-03-15T08:01:17.872Z,994.77
2019-03-15T08:02:17.857Z,995.01
2019-03-15T08:03:17.851Z,994.90
2019-03-15T08:04:17.905Z,994.86
2019-03-15T08:05:17.825Z,994.94
2019-03-15T08:06:17.815Z,995.26
2019-03-15T08:07:20.113Z,994.94
2019-03-15T08:08:17.792Z,995.00
2019-03-15T08:09:17.780Z,995.04
2019-03-15T08:10:17.803Z,994.96
2019-03-15T08:11:17.782Z,995.16
2019-03-15T08:12:17.751Z,995.12
2019-03-15T08:13:17.737Z,995.20
2019-03-15T08:14:17.727Z,995.13
2019-03-15T08:15:17.751Z,995.16
2019-03-15T08:16:17.705Z,995.18
2019-03-15T08:17:17.698Z,995.19
2019-03-15T08:18:17.691Z,995.18
2019-03-15T08:19:17.676Z,995.17
2019-03-15T08:20:17.663Z,995.03
2019-03-15T08:21:17.677Z,995.11
2019-03-15T08:22:17.643Z,995.16
2019-03-15T08:23:17.629Z,995.19
2019-03-15T08:24:17.619Z,995.11
2019-03-15T08:25:17.612Z,995.13
2019-03-15T08:26:17.641Z,995.09
2019-03-15T08:27:17.586Z,995.03
2019-03-15T08:28:17.576Z,995.14
2019-03-15T08:29:17.568Z,995.09
2019-03-15T08:30:17.554Z,995.09
2019-03-15T08:31:17.543Z,995.16
2019-03-15T08:32:17.560Z,995.13
2019-03-15T08:33:17.525Z,995.15
2019-03-15T08:34:17.509Z,995.13
2019-03-15T08:35:17.504Z,995.15
2019-03-15T08:36:20.140Z,995.21
2019-03-15T08:37:17.520Z,995.19
2019-03-15T08:38:17.466Z,995.17
2019-03-15T08:39:17.458Z,995.20
2019-03-15T08:40:17.447Z,995.23
2019-03-15T08:41:17.439Z,995.23
2019-03-15T08:42:17.423Z,995.28
2019-03-15T08:43:17.435Z,995.24
2019-03-15T08:44:17.402Z,995.28
2019-03-15T08:45:17.389Z,995.33
2019-03-15T08:46:17.377Z,995.32
2019-03-15T08:47:17.368Z,995.23
2019-03-15T08:48:17.394Z,995.32
2019-03-15T08:49:17.345Z,995.25
2019-03-15T08:50:17.335Z,995.30
2019-03-15T08:51:17.325Z,995.37
2019-03-15T08:52:17.317Z,995.31
2019-03-15T08:53:17.305Z,995.31
2019-03-15T08:54:17.318Z,995.28
2019-03-15T08:55:17.283Z,995.30
2019-03-15T08:56:17.275Z,995.25
2019-03-15T08:57:17.262Z,995.28
2019-03-15T08:58:21.983Z,995.33
2019-03-15T08:59:18.275Z,995.30
2019-03-15T09:00:17.231Z,995.29
2019-03-15T09:01:17.218Z,995.23
2019-03-15T09:02:17.209Z,995.28
2019-03-15T09:03:27.264Z,995.30
2019-03-15T09:04:21.287Z,995.33
2019-03-15T09:05:17.208Z,995.37
2019-03-15T09:06:17.165Z,995.28
2019-03-15T09:07:17.154Z,995.32
2019-03-15T09:08:17.148Z,995.31
2019-03-15T09:09:17.134Z,995.32
2019-03-15T09:10:23.332Z,995.32
2019-03-15T09:11:18.109Z,995.34
2019-03-15T09:12:17.099Z,995.34
2019-03-15T09:13:17.092Z,995.27
2019-03-15T09:14:17.079Z,995.31
2019-03-15T09:15:17.072Z,995.24
2019-03-15T09:16:17.084Z,995.23
2019-03-15T09:17:19.856Z,995.28
2019-03-15T09:18:17.037Z,995.19
2019-03-15T09:19:17.024Z,995.16
2019-03-15T09:20:17.014Z,995.13
2019-03-15T09:21:17.041Z,995.10
2019-03-15T09:22:16.992Z,995.07
2019-03-15T09:23:16.983Z,995.03
2019-03-15T09:24:16.971Z,995.03
2019-03-15T09:25:20.459Z,995.07
2019-03-15T09:26:16.948Z,995.01
2019-03-15T09:27:16.967Z,994.97
2019-03-15T09:28:16.927Z,995.05
2019-03-15T09:29:16.918Z,994.98
2019-03-15T09:30:24.475Z,995.04
2019-03-15T09:31:17.894Z,995.04
2019-03-15T09:32:16.920Z,995.02
2019-03-15T09:33:16.873Z,995.02
2019-03-15T09:34:16.868Z,995.09
2019-03-15T09:35:16.853Z,995.14
2019-03-15T09:36:16.842Z,995.08
2019-03-15T09:37:16.839Z,995.02
2019-03-15T09:38:16.845Z,995.01
2019-03-15T09:39:16.809Z,995.05
2019-03-15T09:40:16.803Z,995.02
2019-03-15T09:41:30.612Z,994.99
2019-03-15T09:42:17.775Z,994.99
2019-03-15T09:43:16.791Z,995.00
2019-03-15T09:44:16.755Z,994.95
2019-03-15T09:45:16.748Z,995.01
2019-03-15T09:46:16.736Z,995.03
2019-03-15T09:47:16.724Z,995.03
2019-03-15T09:48:16.794Z,995.04
2019-03-15T09:49:16.706Z,995.10
2019-03-15T09:50:26.449Z,994.89
2019-03-15T09:52:07.559Z,995.00
2019-03-15T09:53:07.586Z,994.99
2019-03-15T09:54:07.541Z,994.94
2019-03-15T09:55:07.528Z,995.03
2019-03-15T09:56:07.516Z,995.04
2019-03-15T09:57:07.504Z,995.11
2019-03-15T09:58:07.496Z,994.98
2019-03-15T09:59:07.511Z,995.05
2019-03-15T10:00:07.474Z,994.98
2019-03-15T10:01:07.864Z,994.98
2019-03-15T10:02:07.988Z,994.94
2019-03-15T10:03:21.250Z,995.04
2019-03-15T10:04:08.456Z,995.01
2019-03-15T10:05:11.106Z,995.00
2019-03-15T10:06:14.798Z,995.03
2019-03-15T10:07:08.422Z,995.03
2019-03-15T10:08:07.387Z,995.02
2019-03-15T10:09:07.423Z,994.95
2019-03-15T10:10:13.470Z,994.99
2019-03-15T10:11:08.358Z,994.93
2019-03-15T10:12:07.345Z,994.95
2019-03-15T10:13:07.335Z,995.06
2019-03-15T10:14:07.322Z,994.96
2019-03-15T10:15:08.112Z,994.90
2019-03-15T10:16:07.299Z,994.93
2019-03-15T10:17:07.289Z,994.89
2019-03-15T10:18:07.280Z,994.83
2019-03-15T10:19:07.270Z,994.82
2019-03-15T10:20:07.294Z,994.82
2019-03-15T10:21:09.222Z,994.80
2019-03-15T10:22:07.231Z,994.87
2019-03-15T10:23:07.224Z,994.76
2019-03-15T10:24:07.211Z,994.75
2019-03-15T10:25:07.198Z,994.79
2019-03-15T10:26:07.213Z,994.85
2019-03-15T10:27:07.176Z,994.81
2019-03-15T10:28:07.167Z,994.76
2019-03-15T10:29:15.239Z,994.85
2019-03-15T10:30:08.150Z,994.75
2019-03-15T10:31:07.254Z,994.81
2019-03-15T10:32:07.123Z,994.68
2019-03-15T10:33:07.112Z,994.74
2019-03-15T10:34:07.102Z,994.80
2019-03-15T10:35:07.093Z,994.80
2019-03-15T10:36:07.080Z,994.75
2019-03-15T10:37:07.093Z,994.73
2019-03-15T10:38:07.059Z,994.74
2019-03-15T10:39:07.044Z,994.69
2019-03-15T10:40:07.035Z,994.76
2019-03-15T10:41:07.026Z,994.68
2019-03-15T10:42:07.051Z,994.73
2019-03-15T10:43:07.001Z,994.66
2019-03-15T10:44:06.991Z,994.72
2019-03-15T10:45:06.982Z,994.67
2019-03-15T10:46:06.970Z,994.62
2019-03-15T10:47:06.956Z,994.69
2019-03-15T10:48:08.257Z,994.65
2019-03-15T10:49:06.936Z,994.63
2019-03-15T10:50:06.927Z,994.62
2019-03-15T10:51:06.911Z,994.60
2019-03-15T10:52:06.908Z,994.57
2019-03-15T10:53:06.916Z,994.70
2019-03-15T10:54:06.878Z,994.57
2019-03-15T10:55:06.868Z,994.57
2019-03-15T10:56:06.860Z,994.52
2019-03-15T10:57:06.846Z,994.52
2019-03-15T10:58:06.874Z,994.55
2019-03-15T10:59:06.823Z,994.54
2019-03-15T11:00:06.814Z,994.47
2019-03-15T11:01:06.800Z,994.49
2019-03-15T11:02:06.792Z,994.49
2019-03-15T11:03:06.780Z,994.39
2019-03-15T11:04:06.793Z,994.53
2019-03-15T11:05:06.759Z,994.59
2019-03-15T11:06:06.747Z,994.48
2019-03-15T11:07:06.736Z,994.51
2019-03-15T11:08:06.725Z,994.50
2019-03-15T11:09:06.751Z,994.40
2019-03-15T11:10:06.704Z,994.44
2019-03-15T11:11:06.701Z,994.47
2019-03-15T11:12:06.681Z,994.46
2019-03-15T11:13:06.752Z,994.50
2019-03-15T11:14:06.668Z,994.34
2019-03-15T11:15:06.801Z,994.35
2019-03-15T11:16:06.637Z,994.39
2019-03-15T11:17:06.626Z,994.30
2019-03-15T11:18:06.623Z,994.26
2019-03-15T11:19:06.607Z,994.21
2019-03-15T11:20:06.619Z,994.18
2019-03-15T11:21:06.582Z,994.08
2019-03-15T11:22:06.580Z,994.07
2019-03-15T11:23:06.558Z,994.12
2019-03-15T11:24:06.559Z,994.11
2019-03-15T11:25:06.574Z,994.10
2019-03-15T11:26:13.552Z,994.15
2019-03-15T11:27:07.515Z,994.14
2019-03-15T11:28:06.502Z,994.08
2019-03-15T11:29:06.493Z,994.08
2019-03-15T11:30:06.482Z,994.09
2019-03-15T11:31:06.498Z,993.95
2019-03-15T11:32:06.462Z,993.93
2019-03-15T11:33:06.449Z,993.84
2019-03-15T11:34:06.437Z,994.04
2019-03-15T11:35:06.428Z,993.96
2019-03-15T11:36:06.453Z,993.92
2019-03-15T11:37:06.409Z,993.92
2019-03-15T11:38:06.399Z,993.91
2019-03-15T11:39:06.383Z,993.88
2019-03-15T11:40:06.373Z,993.77
2019-03-15T11:41:06.363Z,993.74
2019-03-15T11:42:06.374Z,993.63
2019-03-15T11:43:06.339Z,993.63
2019-03-15T11:44:06.329Z,993.71
2019-03-15T11:45:06.322Z,993.69
2019-03-15T11:46:06.308Z,993.81
2019-03-15T11:47:06.382Z,993.83
2019-03-15T11:48:08.753Z,993.83
2019-03-15T11:49:06.272Z,993.90
2019-03-15T11:50:06.320Z,993.83
2019-03-15T11:51:06.253Z,993.67
2019-03-15T11:52:06.242Z,993.76
2019-03-15T11:53:06.260Z,993.75
2019-03-15T11:54:06.222Z,993.79
2019-03-15T11:55:06.209Z,993.76
2019-03-15T11:56:06.198Z,993.63
2019-03-15T11:57:06.189Z,993.71
2019-03-15T11:58:06.203Z,993.72
2019-03-15T11:59:06.166Z,993.64
2019-03-15T12:00:06.183Z,993.71
2019-03-15T12:01:06.147Z,993.65
2019-03-15T12:02:06.132Z,993.59
2019-03-15T12:03:06.157Z,993.74
2019-03-15T12:04:06.112Z,993.63
2019-03-15T12:05:06.100Z,993.62
2019-03-15T12:06:06.089Z,993.57
2019-03-15T12:07:06.081Z,993.55
2019-03-15T12:08:06.069Z,993.66
2019-03-15T12:09:06.082Z,993.58
2019-03-15T12:10:06.046Z,993.47
2019-03-15T12:11:06.054Z,993.50
2019-03-15T12:12:06.025Z,993.43
2019-03-15T12:13:06.015Z,993.31
2019-03-15T12:14:06.043Z,993.34
2019-03-15T12:15:05.992Z,993.30
2019-03-15T12:16:05.985Z,993.28
2019-03-15T12:17:05.980Z,993.25
2019-03-15T12:18:08.397Z,993.27
2019-03-15T12:19:05.948Z,993.25
2019-03-15T12:20:05.964Z,993.22
2019-03-15T12:21:05.926Z,993.18
2019-03-15T12:22:06.791Z,993.15
2019-03-15T12:23:05.907Z,993.15
2019-03-15T12:24:05.893Z,993.09
2019-03-15T12:25:05.906Z,993.14
2019-03-15T12:26:05.870Z,993.26
2019-03-15T12:27:05.862Z,993.13
2019-03-15T12:28:05.850Z,993.25
2019-03-15T12:29:05.838Z,993.18